Главная страница
METAR-TAF:

METAR-TAF

Аэропорты :

Стокгольм-Арланда, Швеция

широта: 59-39N, долгота: 017-57E, высота над уровнем моря: 38 м

Текущие метеонаблюдения

Эта сводка был подготовлена 33 минут назад, в 15:20 UTC
Ветер 7 Узел от юго-восточный, изменяющийся между восточный и юго-юго-восточный
Температура 19°C
Влажность 46%
Давление 1009 hPa
Видимость 10 км и более
Нет облачности ниже 1500 м, и нет кучево-дождевой облачности

METAR: ESSA 221520Z 13007KT 100V160 CAVOK 19/07 Q1009 NOSIG

Время: 17:53 (15:53 UTC)

Прогноз

Эта сводка был подготовлена 1 час и 23 минут назад, в 14:30 UTC
Прогноз действительный с 22-го 15 UTC до 23-го 15 UTC
Ветер 8 Узел от юго-восточный
Видимость 10 км и более
Нет облачности ниже 1500 м, и нет кучево-дождевой облачности

TAF: ESSA 221430Z 2215/2315 13008KT CAVOK

Метеонаблюдения и прогнозы для более 4000 аэропортов (сводки METAR и TAF).

Имеющиеся станции представлены на карте желтыми и красными точками.

Чтобы увидеть название станции, наведите на нее мышь.

Затем щелкните, чтобы увидеть метеонаблюдения и метеопрогнозы.

Управление картой: чтобы увеличить масштаб, щелкните зеленые кнопки с черным крестиком; чтобы уменьшить масштаб, щелкните зеленую кнопку с тире; для просмотра соседних карт щелкайте зеленые стрелки.


METAR-TAF: